createdAt,value
2023-12-18T00:00:06.246Z,3.40
2023-12-18T00:01:06.189Z,3.50
2023-12-18T00:02:07.099Z,3.40
2023-12-18T00:03:06.333Z,3.60
2023-12-18T00:04:06.196Z,3.50
2023-12-18T00:05:06.178Z,4.20
2023-12-18T00:06:06.253Z,3.80
2023-12-18T00:07:06.140Z,3.90
2023-12-18T00:08:06.077Z,3.70
2023-12-18T00:09:06.090Z,3.70
2023-12-18T00:10:06.057Z,3.50
2023-12-18T00:11:06.028Z,3.50
2023-12-18T00:12:05.974Z,3.60
2023-12-18T00:13:06.042Z,3.80
2023-12-18T00:14:05.941Z,3.70
2023-12-18T00:15:05.973Z,3.50
2023-12-18T00:16:05.930Z,3.70
2023-12-18T00:17:05.911Z,3.30
2023-12-18T00:18:05.983Z,3.70
2023-12-18T00:19:06.180Z,3.80
2023-12-18T00:20:05.909Z,3.90
2023-12-18T00:21:06.650Z,3.50
2023-12-18T00:22:05.864Z,3.40
2023-12-18T00:23:05.841Z,3.40
2023-12-18T00:24:05.815Z,3.80
2023-12-18T00:25:05.987Z,3.60
2023-12-18T00:26:05.787Z,3.90
2023-12-18T00:27:05.814Z,3.70
2023-12-18T00:28:05.809Z,3.60
2023-12-18T00:29:06.544Z,3.30
2023-12-18T00:30:05.887Z,3.80
2023-12-18T00:31:05.845Z,4.20
2023-12-18T00:32:05.710Z,3.90
2023-12-18T00:33:05.958Z,4.20
2023-12-18T00:34:05.797Z,4.00
2023-12-18T00:35:05.686Z,4.20
2023-12-18T00:36:05.737Z,3.90
2023-12-18T00:37:05.657Z,4.30
2023-12-18T00:38:05.634Z,4.40
2023-12-18T00:39:05.690Z,4.30
2023-12-18T00:40:05.632Z,4.20
2023-12-18T00:41:05.605Z,4.70
2023-12-18T00:42:05.639Z,4.30
2023-12-18T00:43:05.588Z,4.30
2023-12-18T00:44:05.585Z,4.30
2023-12-18T00:45:05.592Z,4.20
2023-12-18T00:46:05.574Z,4.30
2023-12-18T00:47:05.551Z,4.10
2023-12-18T00:48:05.608Z,4.20
2023-12-18T00:49:05.638Z,4.00
2023-12-18T00:50:07.751Z,3.90
2023-12-18T00:51:05.581Z,4.10
2023-12-18T00:52:05.485Z,4.00
2023-12-18T00:53:05.480Z,3.90
2023-12-18T00:54:05.474Z,4.80
2023-12-18T00:55:05.633Z,4.00
2023-12-18T00:56:05.457Z,4.40
2023-12-18T00:57:05.454Z,4.40
2023-12-18T00:58:05.412Z,4.40
2023-12-18T00:59:05.384Z,4.60
2023-12-18T01:00:05.445Z,4.80
2023-12-18T01:01:05.522Z,4.80
2023-12-18T01:02:05.357Z,4.00
2023-12-18T01:03:05.416Z,4.80
2023-12-18T01:04:05.383Z,4.90
2023-12-18T01:05:05.330Z,4.90
2023-12-18T01:06:07.108Z,4.60
2023-12-18T01:07:05.279Z,4.80
2023-12-18T01:08:05.269Z,4.90
2023-12-18T01:09:05.262Z,4.60
2023-12-18T01:10:05.230Z,4.80
2023-12-18T01:11:05.245Z,4.60
2023-12-18T01:12:05.247Z,4.70
2023-12-18T01:13:05.195Z,4.40
2023-12-18T01:14:05.190Z,4.60
2023-12-18T01:15:05.221Z,4.90
2023-12-18T01:16:05.162Z,4.70
2023-12-18T01:17:05.292Z,4.30
2023-12-18T01:18:05.283Z,4.60
2023-12-18T01:19:05.341Z,5.10
2023-12-18T01:20:05.093Z,4.80
2023-12-18T01:21:05.137Z,4.50
2023-12-18T01:22:05.074Z,4.40
2023-12-18T01:23:05.413Z,5.00
2023-12-18T01:24:05.093Z,4.80
2023-12-18T01:25:05.073Z,5.90
2023-12-18T01:26:05.127Z,8.40
2023-12-18T01:27:05.033Z,8.00
2023-12-18T01:28:05.015Z,7.80
2023-12-18T01:29:04.994Z,7.60
2023-12-18T01:30:05.131Z,6.20
2023-12-18T01:31:05.041Z,6.10
2023-12-18T01:32:04.988Z,6.00
2023-12-18T01:33:05.008Z,5.50
2023-12-18T01:34:04.991Z,5.60
2023-12-18T01:35:04.932Z,6.10
2023-12-18T01:36:04.912Z,5.90
2023-12-18T01:37:04.880Z,4.80
2023-12-18T01:38:04.892Z,5.40
2023-12-18T01:39:04.899Z,5.30
2023-12-18T01:40:04.910Z,5.30
2023-12-18T01:41:04.893Z,5.30
2023-12-18T01:42:04.859Z,6.40
2023-12-18T01:43:04.808Z,5.80
2023-12-18T01:44:04.811Z,5.60
2023-12-18T01:45:04.847Z,4.80
2023-12-18T01:46:04.805Z,4.60
2023-12-18T01:47:04.765Z,4.00
2023-12-18T01:48:04.823Z,4.50
2023-12-18T01:49:04.947Z,4.40
2023-12-18T01:50:04.721Z,4.30
2023-12-18T01:51:04.736Z,3.90
2023-12-18T01:52:04.770Z,3.90
2023-12-18T01:53:04.713Z,3.60
2023-12-18T01:54:04.772Z,4.10
2023-12-18T01:55:04.689Z,4.10
2023-12-18T01:56:04.682Z,4.20
2023-12-18T01:57:04.694Z,4.30
2023-12-18T01:58:04.622Z,4.40
2023-12-18T01:59:04.611Z,4.20
2023-12-18T02:00:04.729Z,4.60
2023-12-18T02:01:04.725Z,4.20
2023-12-18T02:02:04.571Z,4.30
2023-12-18T02:03:04.626Z,4.10
2023-12-18T02:04:04.629Z,3.90
2023-12-18T02:05:04.535Z,4.10
2023-12-18T02:06:04.571Z,3.90
2023-12-18T02:07:04.555Z,4.40
2023-12-18T02:08:04.498Z,5.20
2023-12-18T02:09:04.531Z,5.50
2023-12-18T02:10:04.488Z,7.50
2023-12-18T02:11:04.459Z,7.90
2023-12-18T02:12:04.489Z,6.30
2023-12-18T02:13:04.433Z,5.50
2023-12-18T02:14:04.438Z,5.00
2023-12-18T02:15:04.475Z,6.20
2023-12-18T02:16:04.532Z,5.30
2023-12-18T02:17:04.389Z,4.60
2023-12-18T02:18:04.452Z,6.30
2023-12-18T02:19:04.489Z,5.40
2023-12-18T02:20:04.338Z,4.90
2023-12-18T02:21:04.389Z,4.60
2023-12-18T02:22:04.316Z,6.60
2023-12-18T02:23:04.330Z,9.30
2023-12-18T02:24:04.350Z,7.00
2023-12-18T02:25:04.318Z,5.10
2023-12-18T02:26:04.275Z,7.10
2023-12-18T02:27:04.381Z,7.90
2023-12-18T02:28:04.296Z,7.50
2023-12-18T02:29:04.236Z,8.10
2023-12-18T02:30:04.333Z,7.20
2023-12-18T02:31:04.323Z,7.10
2023-12-18T02:32:04.188Z,6.10
2023-12-18T02:33:04.348Z,5.10
2023-12-18T02:34:04.276Z,4.80
2023-12-18T02:35:05.103Z,3.60
2023-12-18T02:36:04.197Z,3.90
2023-12-18T02:37:04.139Z,4.40
2023-12-18T02:38:04.122Z,3.40
2023-12-18T02:39:04.159Z,3.50
2023-12-18T02:40:04.094Z,3.80
2023-12-18T02:41:04.071Z,3.30
2023-12-18T02:42:04.223Z,3.90
2023-12-18T02:43:04.130Z,3.70
2023-12-18T02:44:04.064Z,3.90
2023-12-18T02:45:04.131Z,3.60
2023-12-18T02:46:04.028Z,3.30
2023-12-18T02:47:04.010Z,3.10
2023-12-18T02:48:04.208Z,3.20
2023-12-18T02:49:04.145Z,3.40
2023-12-18T02:50:03.985Z,2.70
2023-12-18T02:51:04.027Z,3.10
2023-12-18T02:52:04.016Z,3.00
2023-12-18T02:53:03.946Z,3.10
2023-12-18T02:54:03.974Z,3.10
2023-12-18T02:55:03.945Z,3.50
2023-12-18T02:56:03.905Z,2.90
2023-12-18T02:57:03.972Z,2.80
2023-12-18T02:58:03.889Z,2.90
2023-12-18T02:59:03.838Z,3.30
2023-12-18T03:00:03.868Z,3.20
2023-12-18T03:01:03.843Z,3.40
2023-12-18T03:02:03.805Z,4.50
2023-12-18T03:03:03.923Z,4.90
2023-12-18T03:04:03.921Z,4.60
2023-12-18T03:05:05.654Z,4.30
2023-12-18T03:06:03.804Z,4.20
2023-12-18T03:07:03.768Z,3.20
2023-12-18T03:08:03.740Z,4.20
2023-12-18T03:09:03.770Z,4.10
2023-12-18T03:10:03.703Z,4.50
2023-12-18T03:11:03.704Z,3.50
2023-12-18T03:12:03.711Z,3.70
2023-12-18T03:13:03.675Z,3.70
2023-12-18T03:14:03.669Z,2.90
2023-12-18T03:15:03.681Z,4.00
2023-12-18T03:16:03.627Z,4.70
2023-12-18T03:17:03.620Z,6.10
2023-12-18T03:18:03.734Z,10.90
2023-12-18T03:19:03.741Z,15.70
2023-12-18T03:20:03.597Z,11.80
2023-12-18T03:21:03.581Z,10.80
2023-12-18T03:22:03.570Z,6.60
2023-12-18T03:23:03.547Z,5.30
2023-12-18T03:24:03.582Z,7.70
2023-12-18T03:25:03.524Z,8.60
2023-12-18T03:26:03.525Z,3.90
2023-12-18T03:27:03.544Z,3.60
2023-12-18T03:28:03.482Z,3.70
2023-12-18T03:29:03.476Z,5.10
2023-12-18T03:30:03.557Z,4.80
2023-12-18T03:31:03.496Z,4.60
2023-12-18T03:32:03.446Z,4.10
2023-12-18T03:33:03.521Z,4.30
2023-12-18T03:34:03.622Z,6.40
2023-12-18T03:35:03.411Z,5.80
2023-12-18T03:36:03.409Z,3.10
2023-12-18T03:37:03.369Z,2.70
2023-12-18T03:38:03.356Z,2.00
2023-12-18T03:39:03.381Z,1.70
2023-12-18T03:40:03.326Z,1.50
2023-12-18T03:41:03.349Z,1.50
2023-12-18T03:42:03.324Z,1.80
2023-12-18T03:43:03.297Z,1.50
2023-12-18T03:44:03.279Z,1.20
2023-12-18T03:45:03.282Z,1.50
2023-12-18T03:46:03.253Z,1.40
2023-12-18T03:47:03.233Z,1.50
2023-12-18T03:48:03.328Z,1.90
2023-12-18T03:49:03.321Z,1.40
2023-12-18T03:50:03.242Z,1.50
2023-12-18T03:51:03.218Z,1.30
2023-12-18T03:52:03.198Z,1.20
2023-12-18T03:53:03.194Z,1.40
2023-12-18T03:54:03.298Z,1.50
2023-12-18T03:55:03.159Z,1.70
2023-12-18T03:56:03.166Z,1.30
2023-12-18T03:57:03.142Z,1.40
2023-12-18T03:58:03.112Z,1.20
2023-12-18T03:59:03.106Z,1.40
2023-12-18T04:00:03.143Z,1.20
2023-12-18T04:01:03.205Z,1.00
2023-12-18T04:02:09.559Z,1.20
2023-12-18T04:03:03.103Z,1.10
2023-12-18T04:04:03.097Z,1.20
2023-12-18T04:05:03.035Z,1.20
2023-12-18T04:06:03.198Z,1.10
2023-12-18T04:07:02.989Z,0.90
2023-12-18T04:08:02.952Z,1.30
2023-12-18T04:09:02.959Z,1.00
2023-12-18T04:10:02.961Z,1.00
2023-12-18T04:11:02.931Z,1.10
2023-12-18T04:12:02.953Z,1.10
2023-12-18T04:13:02.894Z,1.10
2023-12-18T04:14:02.908Z,1.10
2023-12-18T04:15:02.978Z,1.20
2023-12-18T04:16:02.878Z,1.00
2023-12-18T04:17:02.880Z,1.10
2023-12-18T04:18:02.917Z,1.30
2023-12-18T04:19:02.940Z,1.40
2023-12-18T04:20:02.802Z,1.20
2023-12-18T04:21:02.847Z,1.40
2023-12-18T04:22:02.817Z,1.10
2023-12-18T04:23:02.773Z,1.50
2023-12-18T04:24:02.871Z,0.90
2023-12-18T04:25:02.740Z,1.20
2023-12-18T04:26:02.734Z,1.40
2023-12-18T04:27:02.707Z,1.00
2023-12-18T04:28:02.717Z,1.30
2023-12-18T04:29:02.681Z,1.10
2023-12-18T04:30:02.690Z,1.10
2023-12-18T04:31:02.723Z,1.10
2023-12-18T04:32:02.654Z,1.10
2023-12-18T04:33:02.724Z,1.00
2023-12-18T04:34:02.784Z,1.20
2023-12-18T04:35:02.621Z,1.10
2023-12-18T04:36:02.632Z,1.50
2023-12-18T04:37:03.599Z,1.40
2023-12-18T04:38:02.635Z,1.00
2023-12-18T04:39:02.561Z,1.20
2023-12-18T04:40:02.570Z,1.00
2023-12-18T04:41:02.568Z,1.20
2023-12-18T04:42:02.544Z,1.20
2023-12-18T04:43:02.542Z,1.40
2023-12-18T04:44:02.508Z,1.10
2023-12-18T04:45:02.489Z,1.20
2023-12-18T04:46:02.541Z,1.20
2023-12-18T04:47:02.524Z,1.00
2023-12-18T04:48:02.587Z,1.20
2023-12-18T04:49:02.526Z,1.20
2023-12-18T04:50:02.449Z,1.30
2023-12-18T04:51:02.441Z,1.20
2023-12-18T04:52:02.454Z,1.10
2023-12-18T04:53:02.391Z,1.10
2023-12-18T04:54:02.405Z,1.30
2023-12-18T04:55:02.359Z,1.00
2023-12-18T04:56:02.353Z,1.10
2023-12-18T04:57:02.333Z,1.10
2023-12-18T04:58:02.360Z,1.20
2023-12-18T04:59:02.321Z,1.50
2023-12-18T05:00:02.304Z,1.40
2023-12-18T05:01:02.500Z,1.20
2023-12-18T05:02:02.304Z,1.10
2023-12-18T05:03:02.266Z,1.30
2023-12-18T05:04:02.295Z,1.40
2023-12-18T05:05:02.262Z,1.20
2023-12-18T05:06:02.236Z,1.10
2023-12-18T05:07:02.211Z,1.10
2023-12-18T05:08:02.213Z,1.20
2023-12-18T05:09:02.182Z,1.30
2023-12-18T05:10:02.182Z,1.30
2023-12-18T05:11:02.150Z,1.10
2023-12-18T05:12:02.141Z,1.00
2023-12-18T05:13:02.159Z,1.00
2023-12-18T05:14:02.133Z,1.00
2023-12-18T05:15:03.940Z,0.90
2023-12-18T05:16:02.129Z,1.20
2023-12-18T05:17:02.095Z,1.40
2023-12-18T05:18:02.185Z,1.20
2023-12-18T05:19:02.169Z,1.40
2023-12-18T05:20:02.035Z,1.50
2023-12-18T05:21:02.036Z,0.70
2023-12-18T05:22:02.051Z,1.00
2023-12-18T05:23:02.049Z,1.20
2023-12-18T05:24:02.004Z,1.10
2023-12-18T05:25:01.992Z,1.20
2023-12-18T05:26:01.982Z,1.40
2023-12-18T05:27:01.959Z,1.10
2023-12-18T05:28:01.953Z,1.50
2023-12-18T05:29:01.946Z,1.50
2023-12-18T05:30:01.916Z,1.40
2023-12-18T05:31:01.960Z,1.70
2023-12-18T05:32:01.897Z,1.50
2023-12-18T05:33:01.993Z,1.20
2023-12-18T05:34:01.948Z,1.20
2023-12-18T05:35:01.846Z,1.30
2023-12-18T05:36:01.866Z,0.90
2023-12-18T05:37:01.823Z,1.00
2023-12-18T05:38:01.832Z,1.30
2023-12-18T05:39:01.796Z,2.30
2023-12-18T05:40:01.792Z,1.30
2023-12-18T05:41:01.797Z,1.40
2023-12-18T05:42:01.812Z,1.60
2023-12-18T05:43:01.771Z,1.60
2023-12-18T05:44:01.761Z,1.20
2023-12-18T05:45:01.734Z,1.90
2023-12-18T05:46:01.709Z,1.60
2023-12-18T05:47:01.716Z,1.10
2023-12-18T05:48:01.755Z,1.30
2023-12-18T05:49:01.775Z,1.80
2023-12-18T05:50:01.741Z,1.40
2023-12-18T05:51:01.656Z,1.20
2023-12-18T05:52:01.630Z,1.20
2023-12-18T05:53:01.639Z,1.00
2023-12-18T05:54:01.606Z,1.10
2023-12-18T05:55:01.609Z,1.30
2023-12-18T05:56:01.586Z,1.30
2023-12-18T05:57:01.580Z,1.20
2023-12-18T05:58:01.635Z,1.10
2023-12-18T05:59:01.571Z,1.30
2023-12-18T06:00:01.563Z,1.30
2023-12-18T06:01:02.962Z,0.90
2023-12-18T06:02:01.496Z,1.50
2023-12-18T06:03:01.521Z,2.30
2023-12-18T06:04:01.630Z,7.80
2023-12-18T06:05:01.489Z,5.20
2023-12-18T06:06:01.482Z,5.60
2023-12-18T06:07:01.473Z,5.40
2023-12-18T06:08:02.348Z,4.30
2023-12-18T06:09:01.415Z,4.10
2023-12-18T06:10:01.418Z,2.30
2023-12-18T06:11:01.388Z,2.60
2023-12-18T06:12:01.412Z,2.60
2023-12-18T06:13:01.396Z,2.50
2023-12-18T06:14:01.388Z,1.30
2023-12-18T06:15:01.363Z,2.10
2023-12-18T06:16:01.349Z,1.30
2023-12-18T06:17:01.312Z,1.20
2023-12-18T06:18:01.361Z,0.90
2023-12-18T06:19:01.476Z,1.30
2023-12-18T06:20:01.289Z,1.10
2023-12-18T06:21:01.273Z,1.10
2023-12-18T06:22:01.249Z,0.90
2023-12-18T06:23:01.252Z,1.10
2023-12-18T06:24:01.226Z,0.90
2023-12-18T06:25:01.218Z,0.90
2023-12-18T06:26:03.337Z,0.90
2023-12-18T06:27:01.199Z,0.90
2023-12-18T06:28:01.182Z,0.90
2023-12-18T06:29:01.171Z,1.00
2023-12-18T06:30:01.160Z,0.90
2023-12-18T06:31:01.215Z,1.00
2023-12-18T06:32:01.219Z,0.70
2023-12-18T06:33:01.248Z,0.80
2023-12-18T06:34:01.187Z,1.20
2023-12-18T06:35:01.346Z,1.00
2023-12-18T06:36:01.132Z,0.90
2023-12-18T06:37:01.078Z,1.10
2023-12-18T06:38:01.086Z,1.00
2023-12-18T06:39:01.049Z,0.90
2023-12-18T06:40:01.089Z,1.40
2023-12-18T06:41:01.050Z,1.20
2023-12-18T06:42:01.005Z,1.50
2023-12-18T06:43:01.011Z,1.00
2023-12-18T06:44:00.976Z,0.90
2023-12-18T06:45:00.963Z,1.10
2023-12-18T06:46:00.968Z,1.20
2023-12-18T06:47:00.969Z,0.90
2023-12-18T06:48:01.000Z,1.10
2023-12-18T06:49:01.026Z,0.90
2023-12-18T06:50:00.900Z,0.90
2023-12-18T06:51:00.889Z,1.20
2023-12-18T06:52:00.944Z,1.30
2023-12-18T06:53:00.870Z,1.00
2023-12-18T06:54:00.861Z,1.20
2023-12-18T06:55:00.845Z,1.30
2023-12-18T06:56:00.828Z,1.50
2023-12-18T06:57:00.815Z,1.30
2023-12-18T06:58:00.797Z,1.50
2023-12-18T06:59:00.783Z,1.30
2023-12-18T07:00:00.782Z,1.20
2023-12-18T07:01:00.881Z,1.70
2023-12-18T07:02:00.797Z,1.80
2023-12-18T07:03:00.767Z,1.70
2023-12-18T07:04:00.962Z,2.10
2023-12-18T07:05:00.730Z,2.10
2023-12-18T07:06:00.687Z,1.80
2023-12-18T07:07:00.698Z,1.20
2023-12-18T07:08:00.675Z,1.20
2023-12-18T07:09:00.707Z,1.20
2023-12-18T07:10:00.760Z,1.20
2023-12-18T07:11:00.643Z,1.30
2023-12-18T07:12:00.667Z,0.90
2023-12-18T07:13:00.659Z,1.20
2023-12-18T07:14:00.587Z,1.20
2023-12-18T07:15:00.575Z,1.40
2023-12-18T07:16:00.567Z,1.60
2023-12-18T07:17:00.570Z,1.20
2023-12-18T07:18:00.646Z,1.40
2023-12-18T07:19:00.643Z,1.50
2023-12-18T07:20:00.545Z,1.20
2023-12-18T07:21:01.521Z,1.50
2023-12-18T07:22:00.615Z,1.50
2023-12-18T07:23:00.523Z,1.60
2023-12-18T07:24:00.469Z,1.50
2023-12-18T07:25:00.522Z,1.60
2023-12-18T07:26:00.434Z,1.80
2023-12-18T07:27:00.472Z,2.00
2023-12-18T07:28:00.519Z,1.60
2023-12-18T07:29:00.438Z,1.80
2023-12-18T07:30:00.384Z,1.70
2023-12-18T07:31:00.457Z,1.60
2023-12-18T07:32:00.371Z,1.70
2023-12-18T07:33:00.568Z,1.60
2023-12-18T07:34:00.454Z,1.50
2023-12-18T07:35:00.538Z,1.50
2023-12-18T07:36:00.318Z,1.40
2023-12-18T07:37:00.324Z,1.30
2023-12-18T07:38:00.282Z,1.20
2023-12-18T07:39:00.283Z,1.40
2023-12-18T07:40:00.467Z,1.00
2023-12-18T07:41:00.320Z,1.30
2023-12-18T07:42:00.229Z,1.30
2023-12-18T07:43:00.341Z,0.90
2023-12-18T07:44:00.256Z,1.30
2023-12-18T07:45:00.250Z,1.10
2023-12-18T07:46:00.185Z,1.30
2023-12-18T07:47:00.212Z,1.10
2023-12-18T07:48:00.332Z,1.20
2023-12-18T07:49:00.291Z,1.20
2023-12-18T07:50:00.286Z,1.50
2023-12-18T07:51:00.114Z,1.60
2023-12-18T07:52:00.106Z,1.60
2023-12-18T07:53:00.112Z,1.40
2023-12-18T07:54:00.079Z,2.00
2023-12-18T07:55:00.062Z,3.00
2023-12-18T07:56:00.057Z,2.00
2023-12-18T07:57:00.046Z,2.80
2023-12-18T07:58:00.037Z,2.90
2023-12-18T07:59:00.029Z,2.90
2023-12-18T08:00:00.015Z,2.90
2023-12-18T08:01:00.092Z,3.10
2023-12-18T08:01:59.985Z,3.30
2023-12-18T08:02:59.999Z,2.70
2023-12-18T08:04:00.138Z,2.80
2023-12-18T08:05:00.062Z,2.40
2023-12-18T08:05:59.946Z,2.80
2023-12-18T08:06:59.920Z,2.60
2023-12-18T08:07:59.904Z,3.20
2023-12-18T08:08:59.918Z,2.70
2023-12-18T08:09:59.887Z,2.40
2023-12-18T08:10:59.871Z,1.90
2023-12-18T08:11:59.849Z,2.50
2023-12-18T08:12:59.865Z,2.60
2023-12-18T08:13:59.830Z,2.90
2023-12-18T08:14:59.837Z,2.40
2023-12-18T08:15:59.790Z,2.50
2023-12-18T08:16:59.786Z,2.70
2023-12-18T08:17:59.834Z,2.30
2023-12-18T08:18:59.896Z,2.40
2023-12-18T08:19:59.765Z,1.70
2023-12-18T08:20:59.737Z,2.20
2023-12-18T08:21:59.750Z,2.00
2023-12-18T08:22:59.712Z,1.90
2023-12-18T08:23:59.693Z,1.90
2023-12-18T08:24:59.762Z,1.30
2023-12-18T08:25:59.677Z,1.40
2023-12-18T08:26:59.660Z,1.80
2023-12-18T08:27:59.732Z,1.40
2023-12-18T08:28:59.637Z,1.50
2023-12-18T08:29:59.648Z,1.70
2023-12-18T08:30:59.712Z,1.40
2023-12-18T08:31:59.607Z,1.20
2023-12-18T08:32:59.622Z,1.50
2023-12-18T08:33:59.616Z,1.40
2023-12-18T08:34:59.671Z,1.40
2023-12-18T08:35:59.546Z,1.70
2023-12-18T08:36:59.547Z,2.00
2023-12-18T08:37:59.521Z,1.70
2023-12-18T08:38:59.510Z,1.70
2023-12-18T08:39:59.960Z,1.40
2023-12-18T08:40:59.487Z,1.40
2023-12-18T08:41:59.560Z,1.60
2023-12-18T08:42:59.485Z,1.70
2023-12-18T08:44:05.446Z,1.20
2023-12-18T08:44:59.434Z,1.10
2023-12-18T08:45:59.446Z,1.40
2023-12-18T08:46:59.446Z,1.80
2023-12-18T08:47:59.506Z,1.50
2023-12-18T08:48:59.467Z,1.80
2023-12-18T08:49:59.359Z,1.60
2023-12-18T08:50:59.379Z,1.90
2023-12-18T08:51:59.357Z,1.90
2023-12-18T08:52:59.332Z,2.40
2023-12-18T08:53:59.307Z,2.40
2023-12-18T08:54:59.325Z,2.30
2023-12-18T08:55:59.283Z,3.00
2023-12-18T08:56:59.284Z,2.00
2023-12-18T08:57:59.269Z,2.70
2023-12-18T08:58:59.263Z,1.60
2023-12-18T08:59:59.251Z,2.20
2023-12-18T09:00:59.347Z,1.60
2023-12-18T09:01:59.218Z,1.80
2023-12-18T09:02:59.198Z,1.60
2023-12-18T09:03:59.262Z,1.50
2023-12-18T09:04:59.188Z,1.40
2023-12-18T09:05:59.198Z,1.90
2023-12-18T09:06:59.177Z,1.10
2023-12-18T09:07:59.145Z,1.90
2023-12-18T09:08:59.161Z,1.60
2023-12-18T09:09:59.117Z,1.50
2023-12-18T09:10:59.154Z,1.60
2023-12-18T09:11:59.127Z,1.60
2023-12-18T09:12:59.102Z,2.50
2023-12-18T09:13:59.050Z,2.30
2023-12-18T09:14:59.051Z,0.90
2023-12-18T09:15:59.041Z,0.70
2023-12-18T09:16:59.099Z,1.20
2023-12-18T09:17:59.065Z,1.10
2023-12-18T09:18:59.378Z,1.00
2023-12-18T09:19:59.021Z,1.00
2023-12-18T09:20:58.989Z,1.40
2023-12-18T09:21:58.968Z,0.90
2023-12-18T09:22:59.010Z,1.50
2023-12-18T09:23:58.979Z,1.50
2023-12-18T09:24:58.929Z,1.10
2023-12-18T09:25:58.920Z,1.40
2023-12-18T09:26:58.939Z,1.10
2023-12-18T09:27:58.896Z,1.00
2023-12-18T09:28:58.876Z,1.10
2023-12-18T09:29:58.909Z,1.60
2023-12-18T09:30:58.950Z,1.30
2023-12-18T09:31:58.893Z,1.20
2023-12-18T09:32:58.981Z,1.10
2023-12-18T09:33:58.998Z,1.10
2023-12-18T09:34:58.893Z,0.90
2023-12-18T09:36:00.132Z,0.90
2023-12-18T09:36:58.772Z,1.00
2023-12-18T09:37:58.768Z,0.90
2023-12-18T09:38:58.768Z,1.10
2023-12-18T09:39:58.742Z,1.20
2023-12-18T09:40:58.746Z,1.00
2023-12-18T09:41:58.728Z,1.30
2023-12-18T09:42:58.730Z,1.00
2023-12-18T09:43:58.691Z,1.10
2023-12-18T09:44:58.705Z,1.10
2023-12-18T09:45:58.703Z,1.20
2023-12-18T09:46:58.662Z,0.80
2023-12-18T09:47:58.726Z,0.90
2023-12-18T09:48:58.741Z,1.30
2023-12-18T09:49:58.606Z,1.70
2023-12-18T09:50:58.624Z,1.50
2023-12-18T09:51:58.631Z,1.40
2023-12-18T09:52:58.588Z,1.80
2023-12-18T09:53:58.599Z,1.70
2023-12-18T09:54:58.574Z,1.30
2023-12-18T09:55:58.557Z,1.40
2023-12-18T09:56:58.537Z,1.50
2023-12-18T09:57:58.506Z,1.50
2023-12-18T09:58:58.535Z,1.80
2023-12-18T09:59:58.539Z,1.70
2023-12-18T10:00:58.538Z,1.60
2023-12-18T10:01:58.455Z,1.10
2023-12-18T10:02:58.514Z,1.60
2023-12-18T10:03:58.551Z,1.30
2023-12-18T10:04:58.468Z,1.60
2023-12-18T10:05:58.440Z,1.10
2023-12-18T10:06:58.408Z,1.40
2023-12-18T10:07:58.396Z,1.30
2023-12-18T10:08:58.403Z,1.10
2023-12-18T10:09:58.387Z,1.40
2023-12-18T10:10:58.347Z,1.00
2023-12-18T10:11:58.320Z,1.10
2023-12-18T10:12:58.360Z,1.40
2023-12-18T10:13:58.305Z,1.30
2023-12-18T10:14:58.322Z,1.10
2023-12-18T10:15:58.402Z,1.30
2023-12-18T10:16:58.284Z,0.90
2023-12-18T10:17:58.332Z,1.00
2023-12-18T10:18:58.253Z,0.70
2023-12-18T10:19:58.405Z,1.30
2023-12-18T10:20:58.692Z,0.90
2023-12-18T10:21:58.234Z,1.00
2023-12-18T10:22:58.233Z,1.00
2023-12-18T10:23:58.177Z,0.90
2023-12-18T10:24:58.229Z,0.90
2023-12-18T10:25:58.166Z,0.90
2023-12-18T10:26:58.129Z,1.00
2023-12-18T10:27:58.203Z,1.10
2023-12-18T10:28:58.100Z,0.80
2023-12-18T10:29:58.138Z,0.90
2023-12-18T10:30:58.268Z,0.90
2023-12-18T10:31:58.164Z,1.00
2023-12-18T10:32:58.266Z,0.80
2023-12-18T10:33:58.150Z,0.80
2023-12-18T10:34:58.032Z,1.00
2023-12-18T10:35:58.044Z,0.60
2023-12-18T10:36:58.120Z,1.10
2023-12-18T10:37:58.037Z,1.30
2023-12-18T10:38:57.981Z,0.90
2023-12-18T10:39:57.979Z,1.20
2023-12-18T10:40:57.965Z,1.20
2023-12-18T10:41:57.933Z,0.80
2023-12-18T10:42:58.189Z,0.90
2023-12-18T10:43:57.909Z,0.90
2023-12-18T10:44:57.904Z,1.00
2023-12-18T10:45:57.928Z,0.90
2023-12-18T10:46:57.863Z,1.00
2023-12-18T10:47:57.889Z,1.20
2023-12-18T10:48:57.910Z,1.00
2023-12-18T10:49:57.850Z,1.30
2023-12-18T10:50:57.862Z,0.90
2023-12-18T10:51:57.821Z,1.20
2023-12-18T10:52:57.807Z,1.10
2023-12-18T10:53:57.804Z,1.50
2023-12-18T10:54:57.775Z,1.10
2023-12-18T10:55:57.971Z,1.10
2023-12-18T10:56:57.779Z,1.30
2023-12-18T10:57:57.768Z,1.00
2023-12-18T10:58:57.716Z,1.20
2023-12-18T10:59:57.733Z,1.10
2023-12-18T11:00:57.791Z,1.40
2023-12-18T11:01:57.668Z,1.50
2023-12-18T11:02:57.691Z,1.20
2023-12-18T11:03:57.804Z,1.10
2023-12-18T11:04:57.710Z,1.30
2023-12-18T11:05:57.831Z,1.10
2023-12-18T11:06:57.630Z,1.00
2023-12-18T11:07:57.623Z,1.30
2023-12-18T11:08:57.572Z,1.10
2023-12-18T11:09:57.592Z,1.10
2023-12-18T11:10:57.545Z,1.10
2023-12-18T11:11:57.579Z,1.40
2023-12-18T11:12:57.599Z,1.20
2023-12-18T11:13:57.513Z,1.30
2023-12-18T11:14:57.506Z,1.10
2023-12-18T11:15:57.683Z,1.30
2023-12-18T11:16:57.499Z,1.50
2023-12-18T11:17:57.676Z,1.40
2023-12-18T11:19:05.177Z,1.70
2023-12-18T11:19:57.605Z,1.60
2023-12-18T11:20:57.429Z,1.60
2023-12-18T11:21:57.498Z,1.50
2023-12-18T11:22:57.444Z,1.60
2023-12-18T11:24:04.513Z,1.70
2023-12-18T11:24:57.456Z,2.00
2023-12-18T11:25:58.490Z,1.70
2023-12-18T11:26:57.336Z,2.20
2023-12-18T11:27:57.386Z,1.30
2023-12-18T11:28:57.318Z,1.70
2023-12-18T11:29:57.319Z,1.40
2023-12-18T11:30:57.363Z,2.60
2023-12-18T11:31:57.287Z,2.00
2023-12-18T11:32:57.312Z,1.90
2023-12-18T11:33:57.356Z,1.50
2023-12-18T11:34:57.352Z,1.80
2023-12-18T11:35:57.231Z,1.50
2023-12-18T11:36:57.272Z,1.60
2023-12-18T11:37:57.219Z,1.90
2023-12-18T11:38:57.193Z,1.80
2023-12-18T11:39:57.189Z,1.50
2023-12-18T11:40:57.216Z,1.80
2023-12-18T11:41:57.152Z,1.70
2023-12-18T11:42:57.193Z,1.60
2023-12-18T11:43:57.147Z,1.90
2023-12-18T11:44:57.127Z,1.80
2023-12-18T11:46:03.578Z,1.40
2023-12-18T11:46:57.124Z,1.70
2023-12-18T11:47:57.223Z,1.30
2023-12-18T11:48:57.189Z,1.30
2023-12-18T11:49:57.217Z,1.30
2023-12-18T11:50:57.109Z,1.40
2023-12-18T11:51:57.127Z,1.00
2023-12-18T11:52:57.032Z,1.00
2023-12-18T11:53:57.036Z,1.40
2023-12-18T11:54:56.983Z,2.00
2023-12-18T11:55:56.971Z,1.70
2023-12-18T11:56:57.177Z,1.30
2023-12-18T11:57:56.993Z,1.10
2023-12-18T11:58:56.941Z,1.10
2023-12-18T11:59:56.947Z,1.30
2023-12-18T12:00:57.051Z,1.50
2023-12-18T12:01:56.914Z,1.10
2023-12-18T12:02:56.897Z,1.20
2023-12-18T12:03:56.954Z,1.00
2023-12-18T12:04:56.856Z,1.30
2023-12-18T12:05:56.897Z,1.50
2023-12-18T12:06:56.933Z,1.70
2023-12-18T12:07:56.821Z,0.80
2023-12-18T12:08:56.809Z,1.50
2023-12-18T12:09:56.817Z,1.30
2023-12-18T12:10:56.775Z,0.80
2023-12-18T12:11:56.774Z,1.10
2023-12-18T12:12:56.830Z,1.10
2023-12-18T12:13:56.776Z,1.00
2023-12-18T12:14:56.759Z,0.60
2023-12-18T12:15:56.800Z,0.90
2023-12-18T12:16:56.698Z,0.70
2023-12-18T12:17:56.734Z,1.20
2023-12-18T12:18:56.877Z,1.50
2023-12-18T12:19:56.769Z,1.10
2023-12-18T12:20:56.660Z,1.40
2023-12-18T12:21:56.877Z,1.20
2023-12-18T12:22:56.619Z,0.90
2023-12-18T12:23:56.633Z,1.90
2023-12-18T12:24:56.964Z,1.10
2023-12-18T12:25:56.632Z,1.10
2023-12-18T12:26:56.743Z,1.30
2023-12-18T12:27:56.633Z,1.50
2023-12-18T12:28:56.604Z,1.30
2023-12-18T12:29:56.557Z,1.00
2023-12-18T12:30:56.630Z,1.00
2023-12-18T12:32:03.790Z,0.90
2023-12-18T12:32:56.582Z,1.30
2023-12-18T12:33:56.621Z,1.10
2023-12-18T12:34:56.579Z,1.10
2023-12-18T12:35:56.467Z,0.80
2023-12-18T12:36:56.476Z,1.10
2023-12-18T12:37:56.433Z,1.00
2023-12-18T12:38:56.552Z,1.40
2023-12-18T12:39:56.430Z,1.00
2023-12-18T12:40:56.444Z,0.80
2023-12-18T12:41:56.423Z,0.80
2023-12-18T12:42:56.381Z,1.40
2023-12-18T12:43:56.372Z,2.00
2023-12-18T12:44:56.382Z,1.40
2023-12-18T12:45:56.382Z,2.70
2023-12-18T12:46:56.318Z,1.60
2023-12-18T12:47:56.414Z,1.70
2023-12-18T12:48:56.546Z,1.20
2023-12-18T12:49:56.401Z,0.90
2023-12-18T12:50:56.305Z,1.50
2023-12-18T12:51:56.290Z,0.90
2023-12-18T12:52:56.259Z,0.60
2023-12-18T12:53:56.249Z,1.30
2023-12-18T12:54:56.284Z,0.50
2023-12-18T12:55:56.201Z,0.60
2023-12-18T12:56:56.208Z,0.60
2023-12-18T12:57:56.222Z,0.80
2023-12-18T12:58:56.166Z,0.60
2023-12-18T12:59:56.187Z,0.40
2023-12-18T13:00:56.222Z,0.60
2023-12-18T13:01:56.141Z,0.90
2023-12-18T13:02:56.177Z,0.70
2023-12-18T13:03:56.181Z,1.10
2023-12-18T13:04:56.134Z,0.70
2023-12-18T13:05:56.187Z,0.50
2023-12-18T13:06:56.138Z,1.30
2023-12-18T13:07:56.059Z,1.40
2023-12-18T13:08:56.042Z,1.00
2023-12-18T13:09:56.233Z,1.30
2023-12-18T13:10:56.961Z,1.30
2023-12-18T13:11:56.005Z,1.30
2023-12-18T13:12:55.998Z,1.20
2023-12-18T13:14:05.433Z,0.80
2023-12-18T13:14:55.972Z,0.50
2023-12-18T13:15:56.002Z,0.90
2023-12-18T13:16:55.949Z,0.50
2023-12-18T13:17:58.172Z,0.70